createdAt,value
2022-11-20T00:04:54.626Z,12.10
2022-11-20T00:09:56.321Z,12.50
2022-11-20T00:15:09.303Z,10.53
2022-11-20T00:20:15.483Z,11.80
2022-11-20T00:25:19.777Z,9.23
2022-11-20T00:30:23.869Z,8.63
2022-11-20T00:35:25.641Z,7.80
2022-11-20T00:40:27.354Z,7.37
2022-11-20T00:45:29.029Z,8.00
2022-11-20T00:50:33.015Z,8.03
2022-11-20T00:55:37.019Z,7.37
2022-11-20T01:00:40.990Z,8.13
2022-11-20T01:05:47.430Z,9.30
2022-11-20T01:10:53.530Z,13.53
2022-11-20T01:16:12.899Z,12.17
2022-11-20T01:21:27.068Z,11.63
2022-11-20T01:26:31.327Z,11.83
2022-11-20T01:31:38.141Z,12.37
2022-11-20T01:36:40.436Z,12.07
2022-11-20T01:42:05.711Z,13.37
2022-11-20T01:47:12.901Z,11.53
2022-11-20T01:52:24.189Z,13.27
2022-11-20T01:57:33.526Z,11.33
2022-11-20T02:02:38.727Z,13.20
2022-11-20T02:07:55.977Z,12.83
2022-11-20T02:13:16.426Z,12.63
2022-11-20T02:18:23.903Z,14.50
2022-11-20T02:23:36.618Z,12.13
2022-11-20T02:28:38.457Z,14.10
2022-11-20T02:33:45.541Z,13.73
2022-11-20T02:38:47.366Z,17.93
2022-11-20T02:43:50.231Z,16.37
2022-11-20T02:48:51.930Z,14.17
2022-11-20T02:53:58.421Z,17.30
2022-11-20T02:59:05.543Z,17.13
2022-11-20T03:04:07.398Z,18.27
2022-11-20T03:09:09.220Z,17.60
2022-11-20T03:14:10.979Z,17.03
2022-11-20T03:19:14.455Z,16.90
2022-11-20T03:24:18.495Z,14.87
2022-11-20T03:29:20.505Z,16.13
2022-11-20T03:34:24.667Z,15.13
2022-11-20T03:39:29.362Z,14.80
2022-11-20T03:44:31.009Z,12.47
2022-11-20T03:49:32.753Z,14.80
2022-11-20T03:54:36.536Z,11.70
2022-11-20T03:59:41.268Z,13.03
2022-11-20T04:04:42.980Z,13.57
2022-11-20T04:09:46.026Z,10.67
2022-11-20T04:14:49.947Z,12.53
2022-11-20T04:19:51.723Z,12.93
2022-11-20T04:24:53.526Z,10.97
2022-11-20T04:29:59.741Z,11.27
2022-11-20T04:35:06.008Z,13.07
2022-11-20T04:40:10.149Z,15.17
2022-11-20T04:45:14.316Z,8.53
2022-11-20T04:50:18.220Z,8.07
2022-11-20T04:55:22.503Z,7.77
2022-11-20T05:00:24.498Z,10.13
2022-11-20T05:05:28.732Z,11.87
2022-11-20T05:10:32.794Z,10.07
2022-11-20T05:15:37.558Z,7.87
2022-11-20T05:20:43.711Z,13.00
2022-11-20T05:25:45.428Z,9.90
2022-11-20T05:30:52.065Z,16.37
2022-11-20T05:35:53.730Z,13.10
2022-11-20T05:40:55.420Z,11.63
2022-11-20T05:45:57.208Z,14.67
2022-11-20T05:51:02.830Z,14.63
2022-11-20T05:56:12.452Z,15.73
2022-11-20T06:01:22.403Z,16.97
2022-11-20T06:06:24.165Z,16.20
2022-11-20T06:11:28.255Z,17.93
2022-11-20T06:16:33.390Z,15.53
2022-11-20T06:21:37.582Z,13.17
2022-11-20T06:26:41.602Z,12.10
2022-11-20T06:31:48.063Z,19.07
2022-11-20T06:36:50.888Z,14.90
2022-11-20T06:41:59.192Z,16.77
2022-11-20T06:47:02.102Z,15.30
2022-11-20T06:52:08.404Z,13.50
2022-11-20T06:57:14.937Z,14.73
2022-11-20T07:02:16.679Z,13.70
2022-11-20T07:07:18.479Z,21.43
2022-11-20T07:12:20.256Z,17.73
2022-11-20T07:17:22.045Z,19.77
2022-11-20T07:22:24.035Z,17.10
2022-11-20T07:27:29.397Z,24.93
2022-11-20T07:32:34.577Z,17.13
2022-11-20T07:37:36.752Z,15.47
2022-11-20T07:42:38.414Z,15.27
2022-11-20T07:47:43.388Z,16.00
2022-11-20T07:52:47.371Z,14.77
2022-11-20T07:57:58.307Z,12.60
2022-11-20T08:03:02.839Z,13.20
2022-11-20T08:08:06.041Z,17.63
2022-11-20T08:13:28.747Z,19.07
2022-11-20T08:18:32.210Z,17.30
2022-11-20T08:23:36.855Z,17.13
2022-11-20T08:28:43.693Z,16.87
2022-11-20T08:33:45.540Z,17.23
2022-11-20T08:38:55.713Z,18.27
2022-11-20T08:44:04.219Z,18.43
2022-11-20T08:49:07.220Z,18.03
2022-11-20T08:54:11.388Z,18.10
2022-11-20T08:59:50.656Z,15.40
2022-11-20T09:04:36.924Z,16.43
2022-11-20T09:09:41.620Z,19.63
2022-11-20T09:14:54.772Z,15.73
2022-11-20T09:20:03.371Z,20.33
2022-11-20T09:25:07.542Z,18.60
2022-11-20T09:30:10.936Z,15.57
2022-11-20T09:35:15.740Z,15.00
2022-11-20T09:40:22.689Z,13.80
2022-11-20T09:45:55.143Z,12.97
2022-11-20T09:51:23.112Z,14.67
2022-11-20T09:56:27.588Z,13.60
2022-11-20T10:01:33.938Z,12.17
2022-11-20T10:06:43.218Z,19.47
2022-11-20T10:11:56.374Z,13.77
2022-11-20T10:17:31.041Z,12.33
2022-11-20T10:22:41.731Z,9.87
2022-11-20T10:28:31.242Z,12.73
2022-11-20T10:33:57.192Z,9.87
2022-11-20T10:39:01.945Z,11.73
2022-11-20T10:44:15.141Z,9.00
2022-11-20T10:49:21.098Z,12.53
2022-11-20T10:55:00.580Z,10.13
2022-11-20T11:00:10.510Z,10.10
2022-11-20T11:05:23.134Z,10.67
2022-11-20T11:10:51.664Z,8.37
2022-11-20T11:15:56.697Z,11.33
2022-11-20T11:21:05.434Z,9.33
2022-11-20T11:26:25.872Z,7.17
2022-11-20T11:31:35.528Z,7.13
2022-11-20T11:36:37.449Z,6.67
2022-11-20T11:41:41.676Z,7.00
2022-11-20T11:47:04.341Z,9.27
2022-11-20T11:52:20.497Z,6.80
2022-11-20T11:57:41.061Z,7.07
2022-11-20T12:02:46.477Z,7.13
2022-11-20T12:07:50.882Z,6.53
2022-11-20T12:13:03.330Z,6.43
2022-11-20T12:18:10.975Z,6.57
2022-11-20T12:23:26.656Z,8.50
2022-11-20T12:28:34.580Z,8.00
2022-11-20T12:34:13.643Z,6.60
2022-11-20T12:39:42.130Z,7.33
2022-11-20T12:45:02.197Z,7.45
2022-11-20T12:50:16.549Z,11.33
2022-11-20T12:55:36.516Z,11.10
2022-11-20T13:00:40.979Z,12.03
2022-11-20T13:05:58.098Z,10.93
2022-11-20T13:11:36.638Z,13.17
2022-11-20T13:16:51.429Z,11.67
2022-11-20T13:21:53.238Z,11.60
2022-11-20T13:27:01.989Z,11.53
2022-11-20T13:32:18.114Z,9.97
2022-11-20T13:37:37.225Z,12.97
2022-11-20T13:42:45.080Z,10.67
2022-11-20T13:47:52.538Z,11.73
2022-11-20T13:53:11.297Z,14.17
2022-11-20T13:58:55.836Z,14.23
2022-11-20T14:04:06.424Z,17.27
2022-11-20T14:09:28.452Z,15.17
2022-11-20T14:14:31.766Z,18.77
2022-11-20T14:19:34.950Z,17.07
2022-11-20T14:24:38.973Z,24.70
2022-11-20T14:29:41.691Z,21.27
2022-11-20T14:34:48.299Z,33.93
2022-11-20T14:39:54.767Z,29.77
2022-11-20T14:44:58.615Z,26.13
2022-11-20T14:50:08.805Z,29.57
2022-11-20T14:55:15.005Z,29.73
2022-11-20T15:00:16.674Z,22.67
2022-11-20T15:05:30.069Z,21.50
2022-11-20T15:10:34.286Z,19.40
2022-11-20T15:15:51.136Z,24.27
2022-11-20T15:20:53.214Z,22.57
2022-11-20T15:25:58.763Z,26.73
2022-11-20T15:31:04.001Z,32.07
2022-11-20T15:36:05.931Z,32.80
2022-11-20T15:41:11.244Z,37.80
2022-11-20T15:46:18.286Z,30.03
2022-11-20T15:51:30.813Z,32.13
2022-11-20T15:56:35.408Z,30.87
2022-11-20T16:01:39.108Z,29.63
2022-11-20T16:06:42.306Z,29.77
2022-11-20T16:11:49.573Z,36.37
2022-11-20T16:16:54.833Z,42.20
2022-11-20T16:22:02.727Z,50.20
2022-11-20T16:27:07.499Z,54.47
2022-11-20T16:32:10.990Z,37.40
2022-11-20T16:37:15.055Z,37.20
2022-11-20T16:42:16.983Z,36.13
2022-11-20T16:47:19.327Z,40.73
2022-11-20T16:52:23.312Z,45.53
2022-11-20T16:57:27.836Z,52.43
2022-11-20T17:02:31.887Z,51.27
2022-11-20T17:07:37.853Z,51.23
2022-11-20T17:12:52.600Z,67.00
2022-11-20T17:17:58.013Z,40.23
2022-11-20T17:22:59.792Z,34.23
2022-11-20T17:28:04.555Z,32.33
2022-11-20T17:33:10.819Z,40.13
2022-11-20T17:38:15.655Z,36.00
2022-11-20T17:43:17.878Z,40.57
2022-11-20T17:48:19.631Z,37.23
2022-11-20T17:53:21.466Z,35.10
2022-11-20T17:58:32.592Z,36.93
2022-11-20T18:03:34.500Z,57.10
2022-11-20T18:08:39.200Z,45.70
2022-11-20T18:14:03.164Z,53.47
2022-11-20T18:19:07.029Z,45.77
2022-11-20T18:24:11.721Z,52.60
2022-11-20T18:29:19.137Z,53.83
2022-11-20T18:34:20.899Z,62.20
2022-11-20T18:39:26.042Z,68.87
2022-11-20T18:44:49.455Z,79.07
2022-11-20T18:49:54.735Z,62.53
2022-11-20T18:54:57.068Z,53.30
2022-11-20T19:00:08.846Z,42.53
2022-11-20T19:05:27.800Z,45.40
2022-11-20T19:10:31.813Z,34.97
2022-11-20T19:15:34.048Z,29.77
2022-11-20T19:20:38.301Z,27.13
2022-11-20T19:25:40.044Z,28.10
2022-11-20T19:30:45.405Z,42.30
2022-11-20T19:35:47.547Z,50.00
2022-11-20T19:40:50.439Z,46.67
2022-11-20T19:45:52.112Z,141.67
2022-11-20T19:51:03.641Z,41.97
2022-11-20T19:56:09.839Z,68.50
2022-11-20T20:01:16.034Z,44.97
2022-11-20T20:06:21.021Z,35.00
2022-11-20T20:11:25.238Z,47.97
2022-11-20T20:16:28.659Z,39.87
2022-11-20T20:21:36.540Z,32.13
2022-11-20T20:26:46.019Z,27.27
2022-11-20T20:31:47.727Z,50.07
2022-11-20T20:36:49.487Z,42.37
2022-11-20T20:41:51.228Z,37.80
2022-11-20T20:46:55.297Z,32.93
2022-11-20T20:51:57.023Z,41.93
2022-11-20T20:56:58.816Z,40.80
2022-11-20T21:02:02.928Z,38.97
2022-11-20T21:07:07.132Z,33.93
2022-11-20T21:12:11.387Z,90.23
2022-11-20T21:17:15.650Z,30.93
2022-11-20T21:22:17.415Z,26.87
2022-11-20T21:27:22.499Z,27.77
2022-11-20T21:32:24.268Z,37.10
2022-11-20T21:37:30.652Z,36.07
2022-11-20T21:42:35.172Z,36.07
2022-11-20T21:47:41.643Z,33.23
2022-11-20T21:52:46.240Z,31.00
2022-11-20T21:57:51.446Z,29.60
2022-11-20T22:02:55.701Z,32.47
2022-11-20T22:07:59.484Z,35.07
2022-11-20T22:13:22.123Z,35.73
2022-11-20T22:18:27.266Z,35.00
2022-11-20T22:23:32.633Z,38.23
2022-11-20T22:28:36.994Z,35.23
2022-11-20T22:33:41.931Z,39.27
2022-11-20T22:38:46.900Z,38.93
2022-11-20T22:43:53.969Z,35.47
2022-11-20T22:48:57.588Z,34.90
2022-11-20T22:53:59.771Z,32.53
2022-11-20T22:59:04.094Z,34.63
2022-11-20T23:04:09.758Z,33.33
2022-11-20T23:09:12.830Z,36.20
2022-11-20T23:14:15.861Z,34.80
2022-11-20T23:19:19.377Z,35.33
2022-11-20T23:24:23.225Z,30.47
2022-11-20T23:29:27.430Z,28.97
2022-11-20T23:34:31.698Z,32.33
2022-11-20T23:39:33.381Z,33.53
2022-11-20T23:44:35.114Z,35.23
2022-11-20T23:49:39.090Z,28.47
2022-11-20T23:54:40.784Z,32.37
2022-11-20T23:59:52.270Z,27.50
